首页
METAR-TAF:

METAR-TAF

机场 :

赫维什-巴拉顿国际机场

黑維茲, 匈牙利

纬度: 46-41-11N, 经度: 017-09-33E, 海拔: 124米

当前天气观测

该预报发布于53分钟前的03:15 UTC
风速3节,风向西北
温度 2°C
湿度 100%
气压 1028 hPa
能見度: 3200
轻雾

METAR: LHSM 260315Z AUTO 31003KT 3200 BR NCD 02/02 Q1028

时间: 05:08 (04:08 UTC)

预报

该预报发布于16小时和53分钟前的11:15 UTC
预报有效从25日的 12点(UTC)到 25日的 21点(UTC)
风速5节,风向
能見度: 8000
成为
从 25日的 16点(UTC)到 25日的 19点(UTC)
风速2节,风向多变
能見度: 4000
轻雾

TAF: LHSM 251115Z 2512/2521 17005KT 8000 NSC BECMG 2516/2519 VRB02KT 4000 BR NSC

超过4000个机场的气象观测和天气预报(METAR&TAF报告)。

可查询的气象台以黄色和红色小点在地图上表示。

将鼠标移到小点上方,可查看气象台名称。

然后点击查看天气观测和预报。

如需切换地图:点击带黑十字的绿色按钮放大地图;点击带横线的绿色按钮缩小地图;或者点击绿色箭头查看邻近地区的地图。


METAR-TAF: